Time;durP1;ratioP1;P1;durP2;ratioP2;P2;SDS_P1;SDS_P2;PMS_P1;PMS_P2;Temp;Humidity;BMP_temperature;BMP_pressure;BME280_temperature;BME280_humidity;BME280_pressure;Samples;Min_cycle;Max_cycle;Signal;HPM_P1;HPM_P2
2022/01/09 00:01:40;;;;;;;0.50;0.50;;;18.80;35.80;;;;;;5149875;27;49203;-17
2022/01/09 00:04:07;;;;;;;0.40;0.40;;;18.70;35.80;;;;;;5150264;27;46823;-17
2022/01/09 00:06:34;;;;;;;0.68;0.60;;;18.70;35.90;;;;;;5150132;27;46949;-17
2022/01/09 00:09:01;;;;;;;0.35;0.35;;;18.60;35.80;;;;;;5150211;27;46899;-18
2022/01/09 00:11:27;;;;;;;0.32;0.32;;;18.70;36.00;;;;;;5149951;27;48156;-17
2022/01/09 00:13:54;;;;;;;0.50;0.50;;;18.60;36.00;;;;;;5150137;27;47639;-17
2022/01/09 00:16:22;;;;;;;0.60;0.60;;;18.60;36.10;;;;;;5149985;27;46850;-17
2022/01/09 00:18:49;;;;;;;0.40;0.40;;;18.60;36.20;;;;;;5150237;27;47237;-18
2022/01/09 00:21:16;;;;;;;0.40;0.40;;;18.50;36.20;;;;;;5149612;27;48834;-17
2022/01/09 00:23:43;;;;;;;0.43;0.43;;;18.40;36.20;;;;;;5150006;27;46973;-17
2022/01/09 00:26:09;;;;;;;0.30;0.30;;;18.40;36.30;;;;;;5149036;27;47046;-17
2022/01/09 00:28:36;;;;;;;0.30;0.30;;;18.40;36.30;;;;;;5150273;27;47088;-17
2022/01/09 00:31:03;;;;;;;0.40;0.40;;;18.40;36.40;;;;;;5149281;27;48745;-17
2022/01/09 00:33:31;;;;;;;0.35;0.35;;;18.40;36.50;;;;;;5149801;27;47093;-17
2022/01/09 00:35:58;;;;;;;0.45;0.45;;;18.30;36.50;;;;;;5149572;27;46899;-17
2022/01/09 00:38:24;;;;;;;0.30;0.30;;;18.30;36.50;;;;;;5150026;27;47234;-17
2022/01/09 00:40:51;;;;;;;0.38;0.38;;;18.30;36.60;;;;;;5149287;27;48853;-19
2022/01/09 00:43:18;;;;;;;0.30;0.30;;;18.30;36.70;;;;;;5149274;27;46889;-18
2022/01/09 00:45:44;;;;;;;0.50;0.50;;;18.20;36.70;;;;;;5149475;27;46762;-17
2022/01/09 00:48:12;;;;;;;0.40;0.40;;;18.20;36.70;;;;;;5149848;27;47283;-17
2022/01/09 00:50:41;;;;;;;0.22;0.22;;;18.20;36.80;;;;;;5149047;27;48215;-17
2022/01/09 00:53:08;;;;;;;0.32;0.32;;;18.20;36.80;;;;;;5149291;27;46858;-17
2022/01/09 00:55:34;;;;;;;0.30;0.30;;;18.20;36.90;;;;;;5149159;27;46891;-17
2022/01/09 00:58:01;;;;;;;0.40;0.40;;;18.20;36.80;;;;;;5149714;27;47098;-17
2022/01/09 01:00:28;;;;;;;0.20;0.20;;;18.40;36.60;;;;;;5148953;27;47826;-17
2022/01/09 01:02:54;;;;;;;0.40;0.40;;;18.60;36.20;;;;;;5149194;27;47182;-18
2022/01/09 01:05:21;;;;;;;0.40;0.40;;;19.00;35.90;;;;;;5149250;27;46979;-17
2022/01/09 01:07:49;;;;;;;0.40;0.40;;;19.30;35.40;;;;;;5149272;27;46890;-17
2022/01/09 01:10:16;;;;;;;0.30;0.30;;;19.50;35.00;;;;;;5149131;27;49049;-17
2022/01/09 01:12:43;;;;;;;0.40;0.40;;;19.70;34.70;;;;;;5149355;27;47069;-16
2022/01/09 01:15:10;;;;;;;0.22;0.22;;;20.00;34.50;;;;;;5147865;27;47039;-17
2022/01/09 01:17:37;;;;;;;0.30;0.30;;;20.10;34.90;;;;;;5149101;27;47206;-19
2022/01/09 01:20:04;;;;;;;0.30;0.30;;;20.20;34.10;;;;;;5148983;27;47976;-17
2022/01/09 01:22:31;;;;;;;0.30;0.30;;;20.30;34.00;;;;;;5148758;27;46965;-17
2022/01/09 01:25:00;;;;;;;0.30;0.30;;;20.40;33.90;;;;;;5148609;27;46913;-18
2022/01/09 01:27:27;;;;;;;0.20;0.20;;;20.40;33.80;;;;;;5149067;27;47160;-18
2022/01/09 01:29:54;;;;;;;0.25;0.20;;;20.40;33.70;;;;;;5148568;27;48113;-19
2022/01/09 01:32:22;;;;;;;0.30;0.30;;;20.40;33.70;;;;;;5147920;27;46819;-17
2022/01/09 01:34:49;;;;;;;0.30;0.30;;;20.40;33.80;;;;;;5148571;27;46937;-18
2022/01/09 01:37:15;;;;;;;1.23;0.20;;;20.40;33.80;;;;;;5148726;27;47126;-18
2022/01/09 01:39:42;;;;;;;0.20;0.20;;;20.40;33.80;;;;;;5148471;27;48137;-18
2022/01/09 01:42:10;;;;;;;0.30;0.30;;;20.40;33.80;;;;;;5148495;27;46897;-17
2022/01/09 01:44:40;;;;;;;0.13;0.13;;;20.40;33.90;;;;;;5148704;27;46885;-18
2022/01/09 01:47:07;;;;;;;0.30;0.30;;;20.40;33.90;;;;;;5148417;27;47319;-17
2022/01/09 01:49:34;;;;;;;0.20;0.20;;;20.30;33.90;;;;;;5148285;27;48846;-17
2022/01/09 01:52:01;;;;;;;0.20;0.20;;;20.30;34.00;;;;;;5148610;27;47432;-17
2022/01/09 01:54:27;;;;;;;0.28;0.28;;;20.30;34.00;;;;;;5148629;27;46745;-17
2022/01/09 01:56:54;;;;;;;0.20;0.20;;;20.30;34.10;;;;;;5148134;27;47125;-18
2022/01/09 01:59:22;;;;;;;0.25;0.25;;;20.20;34.20;;;;;;5148411;27;47753;-17
2022/01/09 02:01:49;;;;;;;0.10;0.10;;;20.20;34.20;;;;;;5147907;27;47039;-17
2022/01/09 02:04:15;;;;;;;0.10;0.10;;;20.10;34.30;;;;;;5148660;27;46931;-19
2022/01/09 02:06:42;;;;;;;0.10;0.10;;;20.20;34.30;;;;;;5148418;27;46788;-17
2022/01/09 02:09:09;;;;;;;0.20;0.20;;;20.30;34.20;;;;;;5148298;27;47883;-19
2022/01/09 02:11:35;;;;;;;0.22;0.22;;;20.50;34.00;;;;;;5148139;27;47178;-18
2022/01/09 02:14:02;;;;;;;0.20;0.20;;;20.60;33.80;;;;;;5148019;27;46888;-19
2022/01/09 02:16:31;;;;;;;0.40;0.40;;;20.70;33.70;;;;;;5148175;27;46837;-17
2022/01/09 02:19:02;;;;;;;0.30;0.30;;;20.70;33.50;;;;;;5147890;27;48176;-18
2022/01/09 02:21:30;;;;;;;0.20;0.20;;;20.80;33.40;;;;;;5147668;27;47136;-17
2022/01/09 02:23:56;;;;;;;0.20;0.10;;;20.90;33.40;;;;;;5148224;27;46886;-17
2022/01/09 02:26:24;;;;;;;0.10;0.10;;;20.90;33.40;;;;;;5147592;27;47322;-17
2022/01/09 02:28:51;;;;;;;0.20;0.20;;;20.90;33.40;;;;;;5147639;27;47998;-17
2022/01/09 02:31:17;;;;;;;0.38;0.30;;;20.90;33.40;;;;;;5147509;27;46894;-18
2022/01/09 02:33:44;;;;;;;0.10;0.10;;;20.80;33.40;;;;;;5148085;27;46961;-19
2022/01/09 02:36:11;;;;;;;0.10;0.10;;;20.80;33.40;;;;;;5147668;27;47308;-19
2022/01/09 02:38:39;;;;;;;0.30;0.20;;;20.80;33.50;;;;;;5147703;27;47040;-19
2022/01/09 02:41:06;;;;;;;0.10;0.10;;;20.70;33.50;;;;;;5147678;27;47264;-18
2022/01/09 02:43:33;;;;;;;0.10;0.10;;;20.70;33.60;;;;;;5146635;27;46864;-17
2022/01/09 02:46:08;;;;;;;0.10;0.10;;;20.70;33.70;;;;;;5147715;27;46931;-18
2022/01/09 02:48:37;;;;;;;0.00;0.00;;;20.60;34.40;;;;;;5147691;27;47838;-18
2022/01/09 02:51:08;;;;;;;0.40;0.20;;;20.50;33.80;;;;;;5147200;27;46907;-17
2022/01/09 02:53:36;;;;;;;0.17;0.10;;;20.50;34.00;;;;;;5147696;27;46727;-17
2022/01/09 02:56:05;;;;;;;0.17;0.17;;;20.40;34.00;;;;;;5147327;27;46962;-17
2022/01/09 02:58:32;;;;;;;0.22;0.15;;;20.40;34.10;;;;;;5147281;27;49036;-18
2022/01/09 03:00:59;;;;;;;0.00;0.00;;;20.30;34.20;;;;;;5147325;27;47515;-18
2022/01/09 03:03:26;;;;;;;0.10;0.10;;;20.30;34.30;;;;;;5147585;27;46890;-17
2022/01/09 03:05:52;;;;;;;0.20;0.20;;;20.20;34.30;;;;;;5147548;27;47271;-17
2022/01/09 03:08:19;;;;;;;0.20;0.10;;;20.20;34.50;;;;;;5147133;27;47844;-17
2022/01/09 03:10:46;;;;;;;0.20;0.20;;;20.10;34.50;;;;;;5147205;27;47148;-17
2022/01/09 03:13:14;;;;;;;0.20;0.20;;;20.00;34.60;;;;;;5147455;27;46870;-17
2022/01/09 03:15:41;;;;;;;0.00;0.00;;;20.00;34.70;;;;;;5147361;27;46828;-17
2022/01/09 03:18:07;;;;;;;0.10;0.10;;;19.90;34.80;;;;;;5147082;27;48128;-17
2022/01/09 03:20:34;;;;;;;0.10;0.10;;;19.90;34.90;;;;;;5147034;27;47085;-17
2022/01/09 03:23:01;;;;;;;0.30;0.13;;;19.80;35.00;;;;;;5147172;27;46967;-18
2022/01/09 03:25:28;;;;;;;0.20;0.20;;;19.80;35.10;;;;;;5146926;27;47001;-17
2022/01/09 03:27:55;;;;;;;0.10;0.10;;;19.80;35.20;;;;;;5147163;27;48944;-17
2022/01/09 03:30:23;;;;;;;0.10;0.10;;;19.70;35.30;;;;;;5146733;27;47101;-17
2022/01/09 03:32:51;;;;;;;0.20;0.20;;;19.60;35.30;;;;;;5146878;27;46899;-17
2022/01/09 03:35:19;;;;;;;0.10;0.10;;;19.50;35.50;;;;;;5146979;27;47328;-16
2022/01/09 03:37:46;;;;;;;0.20;0.20;;;19.50;35.50;;;;;;5146659;27;47973;-17
2022/01/09 03:40:14;;;;;;;0.10;0.10;;;19.40;35.60;;;;;;5146793;27;46915;-17
2022/01/09 03:42:40;;;;;;;0.10;0.10;;;19.40;35.70;;;;;;5147057;27;46836;-17
2022/01/09 03:45:08;;;;;;;0.10;0.10;;;19.40;35.80;;;;;;5146925;27;46960;-17
2022/01/09 03:47:36;;;;;;;0.00;0.00;;;19.30;35.80;;;;;;5146576;27;46968;-17
2022/01/09 03:50:03;;;;;;;0.08;0.08;;;19.20;36.00;;;;;;5147068;27;47040;-17
2022/01/09 03:52:30;;;;;;;0.10;0.10;;;19.20;36.10;;;;;;5146920;27;46882;-17
2022/01/09 03:54:56;;;;;;;0.10;0.10;;;19.20;36.20;;;;;;5148743;27;46908;-17
2022/01/09 03:57:23;;;;;;;0.20;0.20;;;19.10;36.20;;;;;;5149966;27;47874;-17
2022/01/09 03:59:50;;;;;;;0.05;0.05;;;19.10;36.30;;;;;;5150137;27;46886;-18
2022/01/09 04:02:17;;;;;;;0.10;0.10;;;19.00;36.40;;;;;;5150134;27;46898;-17
2022/01/09 04:04:45;;;;;;;0.10;0.10;;;18.90;36.40;;;;;;5150430;27;46954;-18
2022/01/09 04:07:12;;;;;;;0.10;0.10;;;18.90;36.40;;;;;;5149874;27;47892;-18
2022/01/09 04:09:40;;;;;;;0.10;0.10;;;18.90;36.50;;;;;;5149964;27;46797;-17
2022/01/09 04:12:14;;;;;;;0.10;0.10;;;18.90;36.60;;;;;;5150142;27;47109;-17
2022/01/09 04:14:41;;;;;;;0.10;0.10;;;18.80;36.60;;;;;;5150230;27;46890;-17
2022/01/09 04:17:12;;;;;;;0.20;0.20;;;18.70;36.70;;;;;;5149745;27;49057;-17
2022/01/09 04:19:39;;;;;;;0.10;0.10;;;18.70;36.80;;;;;;5150105;27;46790;-17
2022/01/09 04:22:07;;;;;;;0.08;0.05;;;18.70;36.80;;;;;;5149826;27;47317;-17
2022/01/09 04:24:33;;;;;;;0.20;0.20;;;18.60;36.80;;;;;;5150277;27;46960;-18
2022/01/09 04:27:00;;;;;;;0.10;0.10;;;18.60;36.90;;;;;;5149121;27;49191;-17
2022/01/09 04:29:27;;;;;;;0.10;0.10;;;18.60;36.90;;;;;;5149609;27;47052;-17
2022/01/09 04:31:53;;;;;;;0.10;0.10;;;18.50;37.00;;;;;;5149771;27;46994;-17
2022/01/09 04:34:20;;;;;;;0.10;0.10;;;18.50;37.00;;;;;;5149807;27;46980;-18
2022/01/09 04:36:47;;;;;;;0.22;0.22;;;18.40;37.00;;;;;;5149544;27;48927;-17
2022/01/09 04:39:15;;;;;;;0.13;0.13;;;18.40;37.10;;;;;;5149814;27;46924;-18
2022/01/09 04:41:41;;;;;;;0.15;0.10;;;18.40;37.20;;;;;;5149430;27;46819;-17
2022/01/09 04:44:08;;;;;;;0.10;0.10;;;18.30;37.20;;;;;;5150124;27;46971;-17
2022/01/09 04:46:45;;;;;;;0.10;0.10;;;18.30;37.20;;;;;;5149297;27;46829;-17
2022/01/09 04:49:11;;;;;;;0.40;0.15;;;18.30;37.30;;;;;;5149806;27;46793;-17
2022/01/09 04:51:38;;;;;;;0.20;0.20;;;18.30;37.30;;;;;;5149436;27;46916;-17
2022/01/09 04:54:05;;;;;;;0.10;0.10;;;18.20;37.30;;;;;;5149547;27;46951;-18
2022/01/09 04:56:33;;;;;;;0.20;0.20;;;18.20;37.40;;;;;;5148938;27;47827;-16
2022/01/09 04:59:00;;;;;;;0.15;0.15;;;18.20;37.40;;;;;;5149219;27;46818;-17
2022/01/09 05:01:27;;;;;;;0.10;0.10;;;18.10;37.40;;;;;;5149081;27;47053;-17
2022/01/09 05:03:53;;;;;;;0.20;0.20;;;18.10;37.50;;;;;;5149838;27;47200;-17
2022/01/09 05:06:21;;;;;;;0.00;0.00;;;18.10;37.60;;;;;;5148002;27;46938;-17
2022/01/09 05:08:48;;;;;;;0.10;0.10;;;18.00;37.60;;;;;;5149282;27;46890;-17
2022/01/09 05:11:14;;;;;;;0.20;0.20;;;18.10;37.70;;;;;;5148666;27;46880;-17
2022/01/09 05:13:42;;;;;;;0.35;0.10;;;18.10;37.50;;;;;;5149220;27;47147;-17
2022/01/09 05:16:09;;;;;;;0.00;0.00;;;18.30;37.30;;;;;;5148942;27;47091;-17
2022/01/09 05:18:49;;;;;;;0.10;0.10;;;18.60;36.90;;;;;;5149084;27;46870;-17
2022/01/09 05:21:16;;;;;;;0.03;0.03;;;18.80;36.50;;;;;;5149095;27;46841;-17
2022/01/09 05:23:43;;;;;;;0.10;0.10;;;19.20;36.00;;;;;;5149031;27;46889;-17
2022/01/09 05:26:09;;;;;;;0.00;0.00;;;19.40;35.70;;;;;;5148270;27;48029;-17
2022/01/09 05:28:36;;;;;;;0.10;0.10;;;19.60;35.50;;;;;;5149027;27;46918;-17
2022/01/09 05:31:04;;;;;;;0.20;0.20;;;19.70;35.20;;;;;;5148452;27;46874;-18
2022/01/09 05:33:31;;;;;;;0.10;0.10;;;19.90;35.00;;;;;;5148852;27;46880;-19
2022/01/09 05:35:57;;;;;;;0.10;0.10;;;20.00;34.80;;;;;;5148705;27;48109;-17
2022/01/09 05:38:24;;;;;;;0.00;0.00;;;20.00;34.70;;;;;;5148762;27;47081;-18
2022/01/09 05:40:51;;;;;;;0.15;0.10;;;20.10;34.70;;;;;;5148447;27;46859;-17
2022/01/09 05:43:18;;;;;;;0.10;0.10;;;20.10;34.60;;;;;;5148689;27;47305;-17
2022/01/09 05:45:45;;;;;;;0.45;0.20;;;20.10;34.60;;;;;;5148456;27;46911;-17
2022/01/09 05:48:13;;;;;;;0.00;0.00;;;20.10;34.50;;;;;;5148610;27;46841;-17
2022/01/09 05:50:40;;;;;;;0.47;0.10;;;20.10;35.20;;;;;;5148295;27;46879;-18
2022/01/09 05:53:07;;;;;;;0.22;0.22;;;20.10;34.60;;;;;;5148822;27;47176;-17
2022/01/09 05:55:33;;;;;;;0.00;0.00;;;20.10;34.70;;;;;;5148257;27;48121;-18
2022/01/09 05:58:00;;;;;;;0.10;0.10;;;20.10;34.60;;;;;;5148136;27;46903;-17
2022/01/09 06:00:27;;;;;;;0.00;0.00;;;20.10;34.70;;;;;;5148374;27;46946;-17
2022/01/09 06:02:53;;;;;;;0.20;0.20;;;20.00;34.70;;;;;;5148637;27;46883;-19
2022/01/09 06:05:23;;;;;;;0.10;0.10;;;20.00;34.70;;;;;;5148059;27;49041;-18
2022/01/09 06:07:49;;;;;;;0.10;0.10;;;20.00;35.50;;;;;;5148156;27;46944;-17
2022/01/09 06:10:16;;;;;;;0.75;0.10;;;19.90;34.90;;;;;;5148316;27;46801;-18
2022/01/09 06:12:43;;;;;;;0.10;0.00;;;19.90;35.00;;;;;;5148476;27;47098;-19
2022/01/09 06:15:10;;;;;;;0.08;0.08;;;19.80;35.00;;;;;;5148196;27;47055;-17
2022/01/09 06:17:37;;;;;;;0.17;0.17;;;19.80;35.10;;;;;;5147953;27;47000;-18
2022/01/09 06:20:05;;;;;;;0.70;0.20;;;19.70;35.10;;;;;;5148216;27;46858;-18
2022/01/09 06:22:33;;;;;;;0.38;0.10;;;19.70;35.30;;;;;;5148012;27;46897;-18
2022/01/09 06:24:59;;;;;;;0.00;0.00;;;19.70;35.40;;;;;;5147557;27;47249;-18
2022/01/09 06:27:26;;;;;;;0.45;0.28;;;19.60;35.40;;;;;;5148002;27;46961;-17
2022/01/09 06:29:53;;;;;;;0.20;0.10;;;19.50;35.40;;;;;;5148080;27;46913;-18
2022/01/09 06:32:20;;;;;;;0.10;0.10;;;19.50;35.50;;;;;;5148013;27;46950;-18
2022/01/09 06:34:46;;;;;;;0.20;0.20;;;19.40;35.60;;;;;;5147923;27;47877;-18
2022/01/09 06:37:13;;;;;;;0.35;0.10;;;19.40;35.70;;;;;;5147840;27;46981;-17
2022/01/09 06:39:41;;;;;;;0.10;0.10;;;19.30;35.80;;;;;;5147668;27;46942;-18
2022/01/09 06:42:08;;;;;;;0.55;0.20;;;19.30;35.80;;;;;;5147845;27;47271;-17
2022/01/09 06:44:35;;;;;;;0.10;0.10;;;19.20;36.50;;;;;;5147453;27;46812;-18
2022/01/09 06:47:02;;;;;;;0.10;0.10;;;19.20;36.00;;;;;;5147415;27;47171;-17
2022/01/09 06:49:28;;;;;;;0.10;0.10;;;19.10;36.00;;;;;;5147749;27;46761;-19
2022/01/09 06:51:55;;;;;;;0.10;0.10;;;19.10;36.20;;;;;;5147591;27;47071;-17
2022/01/09 06:54:22;;;;;;;0.20;0.10;;;19.00;36.20;;;;;;5147333;27;47891;-18
2022/01/09 06:56:50;;;;;;;0.15;0.10;;;19.00;36.30;;;;;;5147436;27;47158;-17
2022/01/09 06:59:16;;;;;;;0.57;0.17;;;18.90;36.30;;;;;;5147762;27;46910;-19
2022/01/09 07:01:43;;;;;;;0.17;0.10;;;18.90;36.50;;;;;;5147509;27;46869;-17
2022/01/09 07:04:10;;;;;;;0.10;0.10;;;18.80;36.50;;;;;;5147212;27;49058;-18
2022/01/09 07:06:36;;;;;;;0.20;0.20;;;18.80;36.60;;;;;;5147325;27;46944;-17
2022/01/09 07:09:03;;;;;;;0.30;0.30;;;18.70;36.60;;;;;;5147832;27;46895;-17
2022/01/09 07:11:30;;;;;;;0.10;0.10;;;18.70;37.30;;;;;;5147144;27;47179;-18
2022/01/09 07:13:58;;;;;;;0.20;0.20;;;18.70;36.80;;;;;;5147349;27;48117;-17
2022/01/09 07:16:25;;;;;;;0.13;0.10;;;18.60;36.80;;;;;;5147023;27;47121;-17
2022/01/09 07:18:51;;;;;;;0.20;0.20;;;18.60;36.90;;;;;;5146999;27;47010;-17
2022/01/09 07:21:18;;;;;;;0.30;0.30;;;18.60;36.90;;;;;;5147336;27;46877;-17
2022/01/09 07:23:45;;;;;;;0.30;0.20;;;18.50;37.00;;;;;;5146974;27;47070;-17
2022/01/09 07:26:12;;;;;;;0.45;0.28;;;18.40;37.00;;;;;;5146973;27;47267;-17
2022/01/09 07:28:38;;;;;;;0.30;0.15;;;18.50;37.10;;;;;;5147232;27;46841;-16
2022/01/09 07:31:06;;;;;;;0.20;0.20;;;18.40;37.20;;;;;;5150570;27;47275;-16
2022/01/09 07:33:33;;;;;;;0.17;0.17;;;18.30;37.20;;;;;;5150529;27;48735;-16
2022/01/09 07:36:00;;;;;;;0.57;0.40;;;18.30;37.20;;;;;;5150673;27;47438;-16
2022/01/09 07:38:26;;;;;;;0.60;0.30;;;18.30;37.30;;;;;;5150731;27;46771;-16
2022/01/09 07:40:53;;;;;;;0.20;0.20;;;18.30;37.40;;;;;;5150791;27;47001;-17
2022/01/09 07:43:20;;;;;;;0.30;0.10;;;18.20;37.40;;;;;;5150520;27;47030;-17
2022/01/09 07:45:47;;;;;;;0.25;0.10;;;18.20;37.40;;;;;;5150568;27;46958;-16
2022/01/09 07:48:15;;;;;;;0.10;0.10;;;18.10;37.50;;;;;;5150744;27;47000;-16
2022/01/09 07:50:42;;;;;;;0.65;0.20;;;18.10;37.50;;;;;;5150702;27;46870;-16
2022/01/09 07:53:08;;;;;;;0.20;0.20;;;18.10;37.60;;;;;;5150658;27;48843;-15
2022/01/09 07:55:35;;;;;;;0.30;0.30;;;18.00;37.60;;;;;;5149917;27;47444;-16
2022/01/09 07:58:02;;;;;;;0.30;0.20;;;18.00;37.70;;;;;;5150496;27;46894;-16
2022/01/09 08:00:29;;;;;;;0.20;0.20;;;18.00;37.70;;;;;;5150339;27;46872;-15
2022/01/09 08:02:55;;;;;;;0.70;0.17;;;18.00;37.70;;;;;;5150356;27;48350;-17
2022/01/09 08:05:23;;;;;;;0.15;0.13;;;18.00;37.60;;;;;;5150106;27;47169;-16
2022/01/09 08:07:50;;;;;;;0.40;0.40;;;18.20;37.30;;;;;;5150183;27;47034;-16
2022/01/09 08:10:17;;;;;;;0.63;0.40;;;18.40;37.00;;;;;;5150451;27;46840;-16
2022/01/09 08:12:44;;;;;;;0.20;0.20;;;18.70;36.60;;;;;;5150177;27;48014;-17
2022/01/09 08:15:11;;;;;;;0.30;0.20;;;19.10;36.20;;;;;;5149836;27;46986;-16
2022/01/09 08:17:37;;;;;;;0.65;0.30;;;19.30;35.70;;;;;;5150126;27;46823;-17
2022/01/09 08:20:05;;;;;;;0.22;0.22;;;19.50;35.40;;;;;;5150242;27;46893;-16
2022/01/09 08:22:35;;;;;;;0.25;0.13;;;19.70;35.20;;;;;;5150068;27;48085;-15
2022/01/09 08:25:03;;;;;;;0.95;0.30;;;19.80;35.00;;;;;;5149897;27;47488;-16
2022/01/09 08:27:30;;;;;;;1.58;0.30;;;19.90;34.80;;;;;;5150097;27;46783;-16
2022/01/09 08:29:57;;;;;;;0.55;0.22;;;20.00;34.70;;;;;;5149914;27;47074;-16
2022/01/09 08:32:23;;;;;;;0.40;0.20;;;20.00;34.70;;;;;;5149670;27;48960;-16
2022/01/09 08:34:50;;;;;;;0.45;0.20;;;20.00;34.60;;;;;;5149902;27;46882;-16
2022/01/09 08:37:17;;;;;;;0.30;0.20;;;20.00;34.60;;;;;;5149386;27;46902;-17
2022/01/09 08:39:45;;;;;;;0.32;0.32;;;20.10;34.60;;;;;;5149845;27;47360;-17
2022/01/09 08:42:12;;;;;;;0.22;0.22;;;20.10;34.60;;;;;;5148169;27;47882;-16
2022/01/09 08:44:39;;;;;;;0.32;0.25;;;20.00;34.60;;;;;;5149682;27;46950;-17
2022/01/09 08:47:06;;;;;;;0.80;0.40;;;20.00;34.70;;;;;;5149592;27;46886;-16
2022/01/09 08:49:32;;;;;;;0.80;0.20;;;20.00;34.70;;;;;;5149633;27;47181;-16
2022/01/09 08:51:59;;;;;;;0.32;0.30;;;20.00;34.80;;;;;;5149312;27;47075;-18
2022/01/09 08:54:26;;;;;;;0.75;0.40;;;19.90;34.80;;;;;;5149243;27;47404;-16
2022/01/09 08:56:54;;;;;;;0.28;0.20;;;19.90;34.90;;;;;;5148915;27;46999;-17
2022/01/09 08:59:21;;;;;;;0.93;0.38;;;19.90;35.00;;;;;;5149671;27;47076;-16
2022/01/09 09:01:47;;;;;;;0.45;0.40;;;19.80;35.00;;;;;;5149231;27;46822;-16
2022/01/09 09:04:14;;;;;;;0.52;0.30;;;19.80;35.10;;;;;;5149094;27;46758;-17
2022/01/09 09:06:41;;;;;;;0.40;0.30;;;19.70;35.10;;;;;;5149231;27;46881;-16
2022/01/09 09:09:08;;;;;;;0.90;0.40;;;19.70;35.20;;;;;;5149739;27;46841;-18
2022/01/09 09:11:35;;;;;;;0.22;0.20;;;19.70;35.30;;;;;;5148949;27;47873;-16
2022/01/09 09:14:03;;;;;;;1.02;0.50;;;19.60;35.30;;;;;;5148939;27;46770;-17
2022/01/09 09:16:30;;;;;;;0.30;0.30;;;19.60;35.40;;;;;;5148805;27;46848;-16
2022/01/09 09:18:56;;;;;;;0.90;0.20;;;19.50;35.50;;;;;;5149361;27;46927;-16
2022/01/09 09:21:23;;;;;;;0.47;0.47;;;19.50;35.60;;;;;;5148849;27;47819;-17
2022/01/09 09:23:50;;;;;;;0.43;0.40;;;19.40;35.60;;;;;;5149106;27;46825;-17
2022/01/09 09:26:17;;;;;;;0.30;0.30;;;19.40;35.70;;;;;;5148700;27;47008;-16
2022/01/09 09:28:44;;;;;;;0.32;0.32;;;19.40;35.60;;;;;;5148855;27;46923;-16
2022/01/09 09:31:12;;;;;;;0.65;0.30;;;19.30;35.70;;;;;;5148601;27;48228;-16
2022/01/09 09:33:38;;;;;;;0.40;0.40;;;19.20;35.80;;;;;;5148898;27;47270;-17
2022/01/09 09:36:05;;;;;;;0.77;0.40;;;19.20;35.90;;;;;;5148778;27;46913;-16
2022/01/09 09:38:32;;;;;;;1.27;0.30;;;19.20;36.00;;;;;;5148865;27;46870;-16
2022/01/09 09:40:59;;;;;;;0.70;0.60;;;19.10;36.00;;;;;;5148541;27;49181;-16
2022/01/09 09:43:25;;;;;;;1.17;0.40;;;19.10;36.80;;;;;;5148681;27;47004;-16
2022/01/09 09:45:52;;;;;;;0.88;0.50;;;19.10;36.20;;;;;;5148301;27;46845;-16
2022/01/09 09:48:21;;;;;;;0.50;0.50;;;19.00;36.30;;;;;;5149013;27;47238;-16
2022/01/09 09:50:47;;;;;;;0.45;0.40;;;19.00;36.40;;;;;;5148375;27;49333;-16
2022/01/09 09:53:14;;;;;;;0.50;0.40;;;18.90;36.40;;;;;;5147978;27;46831;-16
2022/01/09 09:55:41;;;;;;;0.40;0.40;;;18.90;36.40;;;;;;5148197;27;46812;-16
2022/01/09 09:58:07;;;;;;;0.60;0.50;;;18.80;36.50;;;;;;5148770;27;46910;-16
2022/01/09 10:00:35;;;;;;;1.27;0.50;;;18.80;36.60;;;;;;5147888;27;47076;-16
2022/01/09 10:03:02;;;;;;;0.85;0.45;;;18.80;36.60;;;;;;5148151;27;46891;-16
2022/01/09 10:05:35;;;;;;;0.38;0.38;;;18.70;36.70;;;;;;5148001;27;46787;-16
2022/01/09 10:08:06;;;;;;;0.82;0.60;;;18.70;36.70;;;;;;5148763;27;46865;-16
2022/01/09 10:10:33;;;;;;;0.95;0.43;;;18.70;36.80;;;;;;5147975;27;48918;-16
2022/01/09 10:13:08;;;;;;;0.88;0.47;;;18.70;36.90;;;;;;5148250;27;47443;-15
2022/01/09 10:15:44;;;;;;;0.65;0.50;;;18.60;36.90;;;;;;5148034;27;46879;-16
2022/01/09 10:18:11;;;;;;;0.55;0.38;;;18.60;36.90;;;;;;5148212;27;47194;-16
2022/01/09 10:20:39;;;;;;;1.17;0.70;;;18.60;37.00;;;;;;5147932;27;47714;-16
2022/01/09 10:23:05;;;;;;;0.47;0.45;;;18.60;37.00;;;;;;5147825;27;46893;-16
2022/01/09 10:25:32;;;;;;;0.65;0.32;;;18.50;37.10;;;;;;5147855;27;47027;-16
2022/01/09 10:28:01;;;;;;;0.45;0.40;;;18.50;37.10;;;;;;5148374;27;46910;-18
2022/01/09 10:30:29;;;;;;;0.30;0.30;;;18.50;37.90;;;;;;5147391;27;48107;-18
2022/01/09 10:32:58;;;;;;;1.50;0.45;;;18.40;37.20;;;;;;5148008;27;46818;-16
2022/01/09 10:35:25;;;;;;;0.40;0.40;;;18.40;37.30;;;;;;5147479;27;46896;-17
2022/01/09 10:38:07;;;;;;;1.00;0.60;;;18.40;37.30;;;;;;5147885;27;47094;-17
2022/01/09 10:40:35;;;;;;;0.45;0.40;;;18.40;37.30;;;;;;5147720;27;48114;-17
2022/01/09 10:43:04;;;;;;;2.10;0.80;;;18.30;37.40;;;;;;5147581;27;47420;-16
2022/01/09 10:45:31;;;;;;;0.40;0.40;;;18.30;37.50;;;;;;5147207;27;47025;-16
2022/01/09 10:48:04;;;;;;;1.10;0.47;;;18.30;37.60;;;;;;5147643;27;46908;-17
2022/01/09 10:50:31;;;;;;;0.45;0.40;;;18.20;37.60;;;;;;5147159;27;48869;-16
2022/01/09 10:53:23;;;;;;;0.30;0.30;;;18.20;37.70;;;;;;5147636;27;46988;-17
2022/01/09 10:56:01;;;;;;;1.05;0.47;;;18.10;37.70;;;;;;5147677;27;46818;-16
2022/01/09 10:58:29;;;;;;;0.60;0.32;;;18.10;37.80;;;;;;5147791;27;47180;-18
2022/01/09 11:01:11;;;;;;;0.50;0.47;;;18.10;37.70;;;;;;5146333;27;50082;-18
2022/01/09 11:03:38;;;;;;;0.32;0.32;;;18.10;37.70;;;;;;5145728;27;46897;-18
2022/01/09 11:06:05;;;;;;;0.90;0.52;;;18.30;37.50;;;;;;5147327;27;46877;-18
2022/01/09 11:08:33;;;;;;;1.05;0.43;;;18.60;37.10;;;;;;5147691;27;46932;-18
2022/01/09 11:11:00;;;;;;;0.77;0.40;;;19.00;36.60;;;;;;5146572;27;47849;-18
2022/01/09 11:13:27;;;;;;;0.63;0.40;;;19.30;36.20;;;;;;5147293;27;47197;-18
2022/01/09 11:18:38;;;;;;;0.68;0.50;;;19.70;35.40;;;;;;5144561;27;46851;-17
2022/01/09 11:21:04;;;;;;;0.65;0.60;;;19.90;35.10;;;;;;5146963;27;47918;-17
2022/01/09 11:23:41;;;;;;;0.47;0.45;;;20.10;35.00;;;;;;5146992;27;47017;-18
2022/01/09 11:26:08;;;;;;;0.77;0.50;;;20.20;34.80;;;;;;5146626;27;47006;-18
2022/01/09 11:28:36;;;;;;;1.33;0.40;;;20.30;34.80;;;;;;5147510;27;47030;-18
2022/01/09 11:31:06;;;;;;;0.70;0.40;;;20.30;34.60;;;;;;5146710;27;47768;-18
2022/01/09 11:33:53;;;;;;;1.02;0.45;;;20.30;34.60;;;;;;5147124;27;46955;-18
2022/01/09 11:36:24;;;;;;;0.45;0.35;;;20.30;34.50;;;;;;5146650;27;46818;-18
2022/01/09 11:38:56;;;;;;;0.80;0.52;;;20.40;34.50;;;;;;5147302;27;47157;-18
2022/01/09 11:41:24;;;;;;;0.68;0.57;;;20.40;34.50;;;;;;5146507;27;48104;-18
2022/01/09 11:43:52;;;;;;;0.60;0.52;;;20.40;34.60;;;;;;5146733;27;47721;-18
2022/01/09 11:46:19;;;;;;;0.80;0.70;;;20.50;34.40;;;;;;5146539;27;46989;-18
2022/01/09 11:48:59;;;;;;;0.40;0.40;;;20.50;34.30;;;;;;5146926;27;46896;-19
2022/01/09 11:51:26;;;;;;;0.50;0.50;;;20.60;34.30;;;;;;5146894;27;48236;-18
2022/01/09 11:54:02;;;;;;;0.35;0.35;;;20.60;34.20;;;;;;5147076;27;46941;-18
2022/01/09 11:57:08;;;;;;;0.95;0.50;;;20.60;34.10;;;;;;5146986;27;46827;-18
2022/01/09 11:59:37;;;;;;;0.45;0.40;;;20.60;34.20;;;;;;5146789;27;46867;-18
2022/01/09 12:02:05;;;;;;;1.02;0.38;;;20.70;34.00;;;;;;5145813;27;48840;-18
2022/01/09 12:04:55;;;;;;;0.43;0.43;;;20.80;34.00;;;;;;5146461;27;46887;-18
2022/01/09 12:08:06;;;;;;;0.85;0.57;;;20.80;33.80;;;;;;5146551;27;46904;-18
2022/01/09 12:10:41;;;;;;;0.50;0.40;;;20.90;33.70;;;;;;5146803;27;46992;-18
2022/01/09 12:13:39;;;;;;;0.88;0.60;;;20.90;33.70;;;;;;5146321;27;48047;-18
2022/01/09 12:16:07;;;;;;;1.73;0.65;;;20.90;33.70;;;;;;5148484;27;46761;-18
2022/01/09 12:18:41;;;;;;;0.85;0.38;;;20.80;33.80;;;;;;5149855;27;46829;-18
2022/01/09 12:21:08;;;;;;;0.50;0.35;;;20.80;34.00;;;;;;5150086;27;46832;-18
2022/01/09 12:23:35;;;;;;;0.57;0.57;;;20.80;34.00;;;;;;5149993;27;47939;-18
2022/01/09 12:26:03;;;;;;;0.70;0.40;;;20.80;34.00;;;;;;5149370;27;47055;-18
2022/01/09 12:28:38;;;;;;;1.00;0.80;;;20.90;33.90;;;;;;5149789;27;46857;-18
2022/01/09 12:31:04;;;;;;;0.47;0.47;;;20.90;33.80;;;;;;5149774;27;46889;-18
2022/01/09 12:33:45;;;;;;;0.68;0.50;;;20.90;33.80;;;;;;5149742;27;49072;-18
2022/01/09 12:36:13;;;;;;;1.45;0.60;;;21.00;33.80;;;;;;5149649;27;46886;-18
2022/01/09 12:38:41;;;;;;;1.40;0.40;;;21.00;33.80;;;;;;5149868;27;46838;-18
2022/01/09 12:41:10;;;;;;;0.50;0.50;;;21.00;33.80;;;;;;5149473;27;46816;-18
2022/01/09 12:43:38;;;;;;;0.40;0.40;;;20.90;33.80;;;;;;5149364;27;47827;-18
2022/01/09 12:46:09;;;;;;;0.40;0.40;;;20.90;33.90;;;;;;5149205;27;47054;-18
2022/01/09 12:48:35;;;;;;;1.25;0.55;;;20.80;34.10;;;;;;5149704;27;46955;-18
2022/01/09 12:51:08;;;;;;;1.05;0.40;;;20.70;34.20;;;;;;5149662;27;46920;-18
2022/01/09 12:53:38;;;;;;;0.80;0.40;;;20.60;34.40;;;;;;5149320;27;47945;-18
2022/01/09 12:56:05;;;;;;;1.27;0.40;;;20.40;34.60;;;;;;5149030;27;47097;-18